createdAt,value
2017-09-27T00:03:03.562Z,1016.36
2017-09-27T00:13:03.562Z,1016.28
2017-09-27T00:23:03.580Z,1016.22
2017-09-27T00:33:03.563Z,1016.2
2017-09-27T00:43:03.633Z,1016.23
2017-09-27T00:53:03.578Z,1016.13
2017-09-27T01:03:03.570Z,1016.02
2017-09-27T01:13:06.436Z,1015.94
2017-09-27T01:23:03.678Z,1015.88
2017-09-27T01:33:03.629Z,1015.87
2017-09-27T01:43:03.575Z,1015.84
2017-09-27T01:53:03.680Z,1015.81
2017-09-27T02:03:03.607Z,1015.83
2017-09-27T02:13:03.582Z,1015.8
2017-09-27T02:23:03.632Z,1015.84
2017-09-27T02:33:03.600Z,1015.85
2017-09-27T02:43:03.673Z,1015.84
2017-09-27T02:53:03.623Z,1015.86
2017-09-27T03:03:03.584Z,1015.87
2017-09-27T03:13:03.639Z,1015.86
2017-09-27T03:23:03.604Z,1015.97
2017-09-27T03:33:03.562Z,1015.93
2017-09-27T03:43:03.634Z,1015.94
2017-09-27T03:53:03.601Z,1015.91
2017-09-27T04:03:03.651Z,1015.99
2017-09-27T04:13:03.620Z,1015.93
2017-09-27T04:23:03.558Z,1015.96
2017-09-27T04:33:03.641Z,1015.94
2017-09-27T04:43:03.603Z,1015.95
2017-09-27T04:53:03.553Z,1016.06
2017-09-27T05:03:03.626Z,1015.97
2017-09-27T05:13:03.571Z,1016.07
2017-09-27T05:23:03.645Z,1016.14
2017-09-27T05:33:03.610Z,1016.26
2017-09-27T05:43:03.577Z,1016.31
2017-09-27T05:53:03.642Z,1016.43
2017-09-27T06:03:03.584Z,1016.4
2017-09-27T06:13:03.674Z,1016.4
2017-09-27T06:23:03.636Z,1016.44
2017-09-27T06:33:03.678Z,1016.47
2017-09-27T06:43:03.632Z,1016.46
2017-09-27T06:53:03.604Z,1016.41
2017-09-27T07:03:03.611Z,1016.5
2017-09-27T07:13:03.587Z,1016.54
2017-09-27T07:23:04.341Z,1016.55
2017-09-27T07:33:03.575Z,1016.72
2017-09-27T07:43:03.633Z,1016.74
2017-09-27T07:53:03.626Z,1016.74
2017-09-27T08:03:03.683Z,1016.82
2017-09-27T08:13:03.645Z,1016.85
2017-09-27T08:23:03.725Z,1016.93
2017-09-27T08:33:03.655Z,1016.94
2017-09-27T08:43:03.726Z,1017
2017-09-27T08:53:03.639Z,1016.97
2017-09-27T09:03:03.741Z,1016.87
2017-09-27T09:13:03.728Z,1016.98
2017-09-27T09:23:03.771Z,1016.91
2017-09-27T09:33:03.749Z,1016.9
2017-09-27T09:43:03.718Z,1016.81
2017-09-27T09:53:03.769Z,1016.71
2017-09-27T10:03:03.721Z,1016.68
2017-09-27T10:13:03.771Z,1016.63
2017-09-27T10:23:03.825Z,1016.59
2017-09-27T10:33:03.686Z,1016.52
2017-09-27T10:43:03.763Z,1016.51
2017-09-27T10:53:03.719Z,1016.5
2017-09-27T11:03:03.706Z,1016.43
2017-09-27T11:13:03.748Z,1016.38
2017-09-27T11:23:03.723Z,1016.31
2017-09-27T11:33:03.775Z,1016.2
2017-09-27T11:43:04.748Z,1016.11
2017-09-27T11:53:03.817Z,1016.06
2017-09-27T12:03:07.693Z,1015.9
2017-09-27T12:13:03.732Z,1015.83
2017-09-27T12:23:03.779Z,1015.78
2017-09-27T12:33:03.757Z,1015.77
2017-09-27T12:43:04.736Z,1015.73
2017-09-27T12:53:03.765Z,1015.68
2017-09-27T13:03:03.770Z,1015.71
2017-09-27T13:13:03.678Z,1015.66
2017-09-27T13:23:03.759Z,1015.56
2017-09-27T13:33:03.731Z,1015.54
2017-09-27T13:43:03.792Z,1015.49
2017-09-27T13:53:03.881Z,1015.47
2017-09-27T14:03:03.821Z,1015.44
2017-09-27T14:13:03.772Z,1015.4
2017-09-27T14:23:03.997Z,1015.38
2017-09-27T14:33:03.797Z,1015.29
2017-09-27T14:43:03.766Z,1015.26
2017-09-27T14:53:03.798Z,1015.1
2017-09-27T15:03:03.757Z,1015.14
2017-09-27T15:13:03.818Z,1015.18
2017-09-27T15:23:03.904Z,1015.13
2017-09-27T15:33:03.715Z,1015.16
2017-09-27T15:43:03.716Z,1015.21
2017-09-27T15:53:03.699Z,1015.29
2017-09-27T16:03:03.702Z,1015.4
2017-09-27T16:13:03.731Z,1015.41
2017-09-27T16:23:03.711Z,1015.55
2017-09-27T16:33:03.693Z,1015.65
2017-09-27T16:43:03.711Z,1015.66
2017-09-27T16:53:03.721Z,1015.73
2017-09-27T17:03:03.770Z,1015.65
2017-09-27T17:13:03.725Z,1015.68
2017-09-27T17:23:03.719Z,1015.72
2017-09-27T17:33:03.702Z,1015.84
2017-09-27T17:43:03.713Z,1015.77
2017-09-27T17:53:03.721Z,1015.82
2017-09-27T18:03:03.696Z,1015.83
2017-09-27T18:13:03.789Z,1015.84
2017-09-27T18:23:03.731Z,1015.89
2017-09-27T18:33:03.729Z,1015.97
2017-09-27T18:43:03.695Z,1016
2017-09-27T18:53:03.712Z,1015.97
2017-09-27T19:03:03.728Z,1015.98
2017-09-27T19:13:03.719Z,1016.07
2017-09-27T19:23:03.717Z,1016.02
2017-09-27T19:33:03.721Z,1016.04
2017-09-27T19:43:03.698Z,1016.07
2017-09-27T19:53:03.700Z,1016.08
2017-09-27T20:03:03.725Z,1016.04
2017-09-27T20:13:03.705Z,1016.07
2017-09-27T20:23:03.747Z,1015.97
2017-09-27T20:33:03.703Z,1015.99
2017-09-27T20:43:03.738Z,1015.99
2017-09-27T20:53:03.700Z,1015.99
2017-09-27T21:03:03.732Z,1015.95
2017-09-27T21:13:03.839Z,1015.88
2017-09-27T21:23:03.823Z,1015.88
2017-09-27T21:33:03.830Z,1015.88
2017-09-27T21:43:03.783Z,1015.78
2017-09-27T21:53:04.556Z,1015.72
2017-09-27T22:03:03.827Z,1015.72
2017-09-27T22:13:03.750Z,1015.7
2017-09-27T22:23:03.744Z,1015.73
2017-09-27T22:33:03.877Z,1015.64
2017-09-27T22:43:03.837Z,1015.65
2017-09-27T22:53:03.805Z,1015.71
2017-09-27T23:03:03.818Z,1015.8
2017-09-27T23:13:03.821Z,1015.8
2017-09-27T23:23:03.795Z,1015.79
2017-09-27T23:33:03.741Z,1015.68
2017-09-27T23:43:03.805Z,1015.55
2017-09-27T23:53:03.815Z,1015.61
